sensor_id;sensor_type;location;lat;lon;timestamp;temperature;humidity
2631;DHT22;1325;48.414;9.952;2022-07-10T00:00:52;16.90;99.90
2631;DHT22;1325;48.414;9.952;2022-07-10T00:03:19;16.70;99.90
2631;DHT22;1325;48.414;9.952;2022-07-10T00:05:46;16.60;99.90
2631;DHT22;1325;48.414;9.952;2022-07-10T00:08:16;16.40;99.90
2631;DHT22;1325;48.414;9.952;2022-07-10T00:10:43;16.20;99.90
2631;DHT22;1325;48.414;9.952;2022-07-10T00:13:10;16.00;99.90
2631;DHT22;1325;48.414;9.952;2022-07-10T00:15:37;16.00;99.90
2631;DHT22;1325;48.414;9.952;2022-07-10T00:18:05;16.10;99.90
2631;DHT22;1325;48.414;9.952;2022-07-10T00:20:32;16.20;99.90
2631;DHT22;1325;48.414;9.952;2022-07-10T00:22:59;16.10;99.90
2631;DHT22;1325;48.414;9.952;2022-07-10T00:25:29;16.40;99.90
2631;DHT22;1325;48.414;9.952;2022-07-10T00:27:56;16.70;99.90
2631;DHT22;1325;48.414;9.952;2022-07-10T00:30:24;16.80;99.90
2631;DHT22;1325;48.414;9.952;2022-07-10T00:32:51;17.00;99.90
2631;DHT22;1325;48.414;9.952;2022-07-10T00:35:19;16.60;99.90
2631;DHT22;1325;48.414;9.952;2022-07-10T00:37:46;16.40;99.90
2631;DHT22;1325;48.414;9.952;2022-07-10T00:40:13;16.10;99.90
2631;DHT22;1325;48.414;9.952;2022-07-10T00:42:42;15.90;99.90
2631;DHT22;1325;48.414;9.952;2022-07-10T00:45:10;15.80;99.90
2631;DHT22;1325;48.414;9.952;2022-07-10T00:47:37;15.80;99.90
2631;DHT22;1325;48.414;9.952;2022-07-10T00:50:06;16.00;99.90
2631;DHT22;1325;48.414;9.952;2022-07-10T00:52:35;15.90;99.90
2631;DHT22;1325;48.414;9.952;2022-07-10T00:55:05;15.90;99.90
2631;DHT22;1325;48.414;9.952;2022-07-10T00:57:35;15.90;99.90
2631;DHT22;1325;48.414;9.952;2022-07-10T01:00:06;15.80;99.90
2631;DHT22;1325;48.414;9.952;2022-07-10T01:02:38;15.90;99.90
2631;DHT22;1325;48.414;9.952;2022-07-10T01:05:09;16.00;99.90
2631;DHT22;1325;48.414;9.952;2022-07-10T01:07:36;16.20;99.90
2631;DHT22;1325;48.414;9.952;2022-07-10T01:10:23;16.20;99.90
2631;DHT22;1325;48.414;9.952;2022-07-10T01:12:51;16.20;99.90
2631;DHT22;1325;48.414;9.952;2022-07-10T01:15:20;15.70;99.90
2631;DHT22;1325;48.414;9.952;2022-07-10T01:17:48;15.80;99.90
2631;DHT22;1325;48.414;9.952;2022-07-10T01:20:18;15.80;99.90
2631;DHT22;1325;48.414;9.952;2022-07-10T01:22:47;15.60;99.90
2631;DHT22;1325;48.414;9.952;2022-07-10T01:25:14;15.70;99.90
2631;DHT22;1325;48.414;9.952;2022-07-10T01:27:41;15.70;99.90
2631;DHT22;1325;48.414;9.952;2022-07-10T01:30:10;15.40;99.90
2631;DHT22;1325;48.414;9.952;2022-07-10T01:32:38;15.10;99.90
2631;DHT22;1325;48.414;9.952;2022-07-10T01:35:07;15.20;99.90
2631;DHT22;1325;48.414;9.952;2022-07-10T01:37:35;15.00;99.90
2631;DHT22;1325;48.414;9.952;2022-07-10T01:40:04;15.00;99.90
2631;DHT22;1325;48.414;9.952;2022-07-10T01:42:33;15.10;99.90
2631;DHT22;1325;48.414;9.952;2022-07-10T01:45:00;15.30;99.90
2631;DHT22;1325;48.414;9.952;2022-07-10T01:47:27;15.50;99.90
2631;DHT22;1325;48.414;9.952;2022-07-10T01:49:54;15.50;99.90
2631;DHT22;1325;48.414;9.952;2022-07-10T01:52:22;15.50;99.90
2631;DHT22;1325;48.414;9.952;2022-07-10T01:54:49;15.50;99.90
2631;DHT22;1325;48.414;9.952;2022-07-10T01:57:18;15.70;99.90
2631;DHT22;1325;48.414;9.952;2022-07-10T01:59:46;16.00;99.90
2631;DHT22;1325;48.414;9.952;2022-07-10T02:02:13;15.80;99.90
2631;DHT22;1325;48.414;9.952;2022-07-10T02:04:40;15.80;99.90
2631;DHT22;1325;48.414;9.952;2022-07-10T02:07:06;15.80;99.90
2631;DHT22;1325;48.414;9.952;2022-07-10T02:09:34;15.50;99.90
2631;DHT22;1325;48.414;9.952;2022-07-10T02:12:02;15.10;99.90
2631;DHT22;1325;48.414;9.952;2022-07-10T02:14:31;15.40;99.90
2631;DHT22;1325;48.414;9.952;2022-07-10T02:16:58;15.40;99.90
2631;DHT22;1325;48.414;9.952;2022-07-10T02:19:26;15.60;99.90
2631;DHT22;1325;48.414;9.952;2022-07-10T02:21:53;15.80;99.90
2631;DHT22;1325;48.414;9.952;2022-07-10T02:24:20;15.90;99.90
2631;DHT22;1325;48.414;9.952;2022-07-10T02:26:48;15.90;99.90
2631;DHT22;1325;48.414;9.952;2022-07-10T02:29:15;15.50;99.90
2631;DHT22;1325;48.414;9.952;2022-07-10T02:31:44;15.10;99.90
2631;DHT22;1325;48.414;9.952;2022-07-10T02:34:12;14.90;99.90
2631;DHT22;1325;48.414;9.952;2022-07-10T02:36:40;15.00;99.90
2631;DHT22;1325;48.414;9.952;2022-07-10T02:39:08;15.20;99.90
2631;DHT22;1325;48.414;9.952;2022-07-10T02:41:35;14.90;99.90
2631;DHT22;1325;48.414;9.952;2022-07-10T02:44:03;14.70;99.90
2631;DHT22;1325;48.414;9.952;2022-07-10T02:46:31;14.70;99.90
2631;DHT22;1325;48.414;9.952;2022-07-10T02:48:59;15.00;99.90
2631;DHT22;1325;48.414;9.952;2022-07-10T02:51:27;15.20;99.90
2631;DHT22;1325;48.414;9.952;2022-07-10T02:53:55;15.40;99.90
2631;DHT22;1325;48.414;9.952;2022-07-10T02:56:22;15.40;99.90
2631;DHT22;1325;48.414;9.952;2022-07-10T02:58:49;15.10;99.90
2631;DHT22;1325;48.414;9.952;2022-07-10T03:01:16;14.90;99.90
2631;DHT22;1325;48.414;9.952;2022-07-10T03:03:44;14.80;99.90
2631;DHT22;1325;48.414;9.952;2022-07-10T03:06:12;14.80;99.90
2631;DHT22;1325;48.414;9.952;2022-07-10T03:08:40;14.40;99.90
2631;DHT22;1325;48.414;9.952;2022-07-10T03:11:08;14.40;99.90
2631;DHT22;1325;48.414;9.952;2022-07-10T03:13:35;14.30;99.90
2631;DHT22;1325;48.414;9.952;2022-07-10T03:16:03;14.50;99.90
2631;DHT22;1325;48.414;9.952;2022-07-10T03:18:30;14.50;99.90
2631;DHT22;1325;48.414;9.952;2022-07-10T03:20:57;14.50;99.90
2631;DHT22;1325;48.414;9.952;2022-07-10T03:23:26;14.50;99.90
2631;DHT22;1325;48.414;9.952;2022-07-10T03:25:53;14.80;99.90
2631;DHT22;1325;48.414;9.952;2022-07-10T03:28:21;14.70;99.90
2631;DHT22;1325;48.414;9.952;2022-07-10T03:30:48;14.50;99.90
2631;DHT22;1325;48.414;9.952;2022-07-10T03:33:15;14.40;99.90
2631;DHT22;1325;48.414;9.952;2022-07-10T03:35:42;14.50;99.90
2631;DHT22;1325;48.414;9.952;2022-07-10T03:38:10;14.40;99.90
2631;DHT22;1325;48.414;9.952;2022-07-10T03:40:38;14.40;99.90
2631;DHT22;1325;48.414;9.952;2022-07-10T03:43:06;14.10;99.90
2631;DHT22;1325;48.414;9.952;2022-07-10T03:45:33;14.50;99.90
2631;DHT22;1325;48.414;9.952;2022-07-10T03:48:00;14.50;99.90
2631;DHT22;1325;48.414;9.952;2022-07-10T03:50:28;14.40;99.90
2631;DHT22;1325;48.414;9.952;2022-07-10T03:52:55;13.80;99.90
2631;DHT22;1325;48.414;9.952;2022-07-10T03:55:22;14.00;99.90
2631;DHT22;1325;48.414;9.952;2022-07-10T03:57:51;14.20;99.90
2631;DHT22;1325;48.414;9.952;2022-07-10T04:00:21;14.10;99.90
2631;DHT22;1325;48.414;9.952;2022-07-10T04:02:53;14.00;99.90
2631;DHT22;1325;48.414;9.952;2022-07-10T04:05:22;13.70;99.90
2631;DHT22;1325;48.414;9.952;2022-07-10T04:07:49;13.70;99.90
2631;DHT22;1325;48.414;9.952;2022-07-10T04:10:16;13.70;99.90
2631;DHT22;1325;48.414;9.952;2022-07-10T04:12:44;13.90;99.90
2631;DHT22;1325;48.414;9.952;2022-07-10T04:15:13;13.90;99.90
2631;DHT22;1325;48.414;9.952;2022-07-10T04:17:40;14.20;99.90
2631;DHT22;1325;48.414;9.952;2022-07-10T04:20:08;14.30;99.90
2631;DHT22;1325;48.414;9.952;2022-07-10T04:22:36;14.40;99.90
2631;DHT22;1325;48.414;9.952;2022-07-10T04:25:05;14.40;99.90
2631;DHT22;1325;48.414;9.952;2022-07-10T04:27:32;14.70;99.90
2631;DHT22;1325;48.414;9.952;2022-07-10T04:30:00;15.00;99.90
2631;DHT22;1325;48.414;9.952;2022-07-10T04:32:29;15.20;99.90
2631;DHT22;1325;48.414;9.952;2022-07-10T04:34:57;15.10;99.90
2631;DHT22;1325;48.414;9.952;2022-07-10T04:37:26;15.20;99.90
2631;DHT22;1325;48.414;9.952;2022-07-10T04:39:54;15.40;99.90
2631;DHT22;1325;48.414;9.952;2022-07-10T04:42:21;15.80;99.90
2631;DHT22;1325;48.414;9.952;2022-07-10T04:44:48;15.70;99.90
2631;DHT22;1325;48.414;9.952;2022-07-10T04:47:16;15.70;99.90
2631;DHT22;1325;48.414;9.952;2022-07-10T04:49:44;16.00;99.90
2631;DHT22;1325;48.414;9.952;2022-07-10T04:52:12;16.10;99.90
2631;DHT22;1325;48.414;9.952;2022-07-10T04:54:39;15.70;99.90
2631;DHT22;1325;48.414;9.952;2022-07-10T04:57:06;15.70;99.90
2631;DHT22;1325;48.414;9.952;2022-07-10T04:59:34;16.00;99.90
2631;DHT22;1325;48.414;9.952;2022-07-10T05:02:01;16.40;99.90
2631;DHT22;1325;48.414;9.952;2022-07-10T05:04:28;17.20;99.90
2631;DHT22;1325;48.414;9.952;2022-07-10T05:06:57;17.40;99.90
2631;DHT22;1325;48.414;9.952;2022-07-10T05:09:25;17.90;99.90
2631;DHT22;1325;48.414;9.952;2022-07-10T05:11:52;17.80;99.90
2631;DHT22;1325;48.414;9.952;2022-07-10T05:14:19;17.80;99.90
2631;DHT22;1325;48.414;9.952;2022-07-10T05:16:47;17.60;99.90
2631;DHT22;1325;48.414;9.952;2022-07-10T05:19:14;17.10;99.90
2631;DHT22;1325;48.414;9.952;2022-07-10T05:21:42;17.00;99.90
2631;DHT22;1325;48.414;9.952;2022-07-10T05:24:10;17.30;99.90
2631;DHT22;1325;48.414;9.952;2022-07-10T05:26:37;16.80;99.90
2631;DHT22;1325;48.414;9.952;2022-07-10T05:29:04;17.00;99.90
2631;DHT22;1325;48.414;9.952;2022-07-10T05:31:32;16.70;99.90
2631;DHT22;1325;48.414;9.952;2022-07-10T05:33:59;16.60;99.90
2631;DHT22;1325;48.414;9.952;2022-07-10T05:36:26;16.30;99.90
2631;DHT22;1325;48.414;9.952;2022-07-10T05:38:53;16.60;99.90
2631;DHT22;1325;48.414;9.952;2022-07-10T05:41:22;16.30;99.90
2631;DHT22;1325;48.414;9.952;2022-07-10T05:43:49;16.10;99.90
2631;DHT22;1325;48.414;9.952;2022-07-10T05:46:16;15.80;99.90
2631;DHT22;1325;48.414;9.952;2022-07-10T05:48:43;16.00;99.90
2631;DHT22;1325;48.414;9.952;2022-07-10T05:51:10;16.00;99.90
2631;DHT22;1325;48.414;9.952;2022-07-10T05:53:37;15.90;99.90
2631;DHT22;1325;48.414;9.952;2022-07-10T05:56:05;15.80;99.90
2631;DHT22;1325;48.414;9.952;2022-07-10T05:58:34;16.10;99.90
2631;DHT22;1325;48.414;9.952;2022-07-10T06:01:01;16.10;99.90
2631;DHT22;1325;48.414;9.952;2022-07-10T06:03:28;16.30;99.90
2631;DHT22;1325;48.414;9.952;2022-07-10T06:05:55;16.50;99.90
2631;DHT22;1325;48.414;9.952;2022-07-10T06:08:22;16.30;99.90
2631;DHT22;1325;48.414;9.952;2022-07-10T06:10:49;16.60;99.90
2631;DHT22;1325;48.414;9.952;2022-07-10T06:13:17;16.80;99.90
2631;DHT22;1325;48.414;9.952;2022-07-10T06:15:45;17.40;99.90
2631;DHT22;1325;48.414;9.952;2022-07-10T06:18:12;17.60;99.90
2631;DHT22;1325;48.414;9.952;2022-07-10T06:20:39;18.20;99.90
2631;DHT22;1325;48.414;9.952;2022-07-10T06:23:07;18.70;99.90
2631;DHT22;1325;48.414;9.952;2022-07-10T06:25:37;18.10;99.90
2631;DHT22;1325;48.414;9.952;2022-07-10T06:28:04;17.00;99.90
2631;DHT22;1325;48.414;9.952;2022-07-10T06:30:31;16.90;99.90
2631;DHT22;1325;48.414;9.952;2022-07-10T06:33:00;17.10;99.90
2631;DHT22;1325;48.414;9.952;2022-07-10T06:35:27;17.00;99.90
2631;DHT22;1325;48.414;9.952;2022-07-10T06:37:54;17.50;99.90
2631;DHT22;1325;48.414;9.952;2022-07-10T06:40:22;18.30;99.90
2631;DHT22;1325;48.414;9.952;2022-07-10T06:42:49;18.90;99.90
2631;DHT22;1325;48.414;9.952;2022-07-10T06:45:17;19.70;99.90
2631;DHT22;1325;48.414;9.952;2022-07-10T06:47:44;20.00;99.90
2631;DHT22;1325;48.414;9.952;2022-07-10T06:50:27;20.30;99.90
2631;DHT22;1325;48.414;9.952;2022-07-10T06:52:56;19.90;99.90
2631;DHT22;1325;48.414;9.952;2022-07-10T06:55:24;20.40;99.90
2631;DHT22;1325;48.414;9.952;2022-07-10T06:57:52;20.60;99.90
2631;DHT22;1325;48.414;9.952;2022-07-10T07:00:19;20.20;99.90
2631;DHT22;1325;48.414;9.952;2022-07-10T07:02:46;20.00;99.90
2631;DHT22;1325;48.414;9.952;2022-07-10T07:05:13;20.00;99.90
2631;DHT22;1325;48.414;9.952;2022-07-10T07:07:42;19.20;99.90
2631;DHT22;1325;48.414;9.952;2022-07-10T07:10:10;18.90;99.90
2631;DHT22;1325;48.414;9.952;2022-07-10T07:12:38;18.40;99.90
2631;DHT22;1325;48.414;9.952;2022-07-10T07:15:06;18.70;99.90
2631;DHT22;1325;48.414;9.952;2022-07-10T07:17:39;18.50;99.90
2631;DHT22;1325;48.414;9.952;2022-07-10T07:20:23;18.90;99.90
2631;DHT22;1325;48.414;9.952;2022-07-10T07:23:10;18.70;99.90
2631;DHT22;1325;48.414;9.952;2022-07-10T07:25:37;18.00;99.90
2631;DHT22;1325;48.414;9.952;2022-07-10T07:28:07;18.70;99.90
2631;DHT22;1325;48.414;9.952;2022-07-10T07:30:35;19.60;99.90
2631;DHT22;1325;48.414;9.952;2022-07-10T07:33:02;20.30;99.90
2631;DHT22;1325;48.414;9.952;2022-07-10T07:35:42;20.50;99.90
2631;DHT22;1325;48.414;9.952;2022-07-10T07:38:10;21.40;99.90
2631;DHT22;1325;48.414;9.952;2022-07-10T07:40:38;22.10;99.90
2631;DHT22;1325;48.414;9.952;2022-07-10T07:43:05;22.50;99.90
2631;DHT22;1325;48.414;9.952;2022-07-10T07:45:33;21.60;99.90
2631;DHT22;1325;48.414;9.952;2022-07-10T07:48:00;20.50;99.90
2631;DHT22;1325;48.414;9.952;2022-07-10T07:50:30;20.00;99.90
2631;DHT22;1325;48.414;9.952;2022-07-10T07:52:59;19.30;99.90
2631;DHT22;1325;48.414;9.952;2022-07-10T07:55:28;19.10;99.90
2631;DHT22;1325;48.414;9.952;2022-07-10T07:57:57;19.60;99.90
2631;DHT22;1325;48.414;9.952;2022-07-10T08:00:26;20.50;99.90
2631;DHT22;1325;48.414;9.952;2022-07-10T08:02:54;20.80;99.90
2631;DHT22;1325;48.414;9.952;2022-07-10T08:05:23;20.80;99.90
2631;DHT22;1325;48.414;9.952;2022-07-10T08:07:52;21.30;99.90
2631;DHT22;1325;48.414;9.952;2022-07-10T08:10:21;20.70;99.90
2631;DHT22;1325;48.414;9.952;2022-07-10T08:12:51;20.40;99.90
2631;DHT22;1325;48.414;9.952;2022-07-10T08:15:20;19.20;99.90
2631;DHT22;1325;48.414;9.952;2022-07-10T08:17:49;19.00;99.90
2631;DHT22;1325;48.414;9.952;2022-07-10T08:20:18;20.10;99.90
2631;DHT22;1325;48.414;9.952;2022-07-10T08:22:45;20.90;99.90
2631;DHT22;1325;48.414;9.952;2022-07-10T08:25:14;21.70;99.90
2631;DHT22;1325;48.414;9.952;2022-07-10T08:27:41;22.10;99.90
2631;DHT22;1325;48.414;9.952;2022-07-10T08:30:10;22.10;99.90
2631;DHT22;1325;48.414;9.952;2022-07-10T08:32:39;20.50;99.90
2631;DHT22;1325;48.414;9.952;2022-07-10T08:35:08;20.20;99.90
2631;DHT22;1325;48.414;9.952;2022-07-10T08:37:39;20.10;99.90
2631;DHT22;1325;48.414;9.952;2022-07-10T08:40:08;19.70;99.90
2631;DHT22;1325;48.414;9.952;2022-07-10T08:42:37;19.10;99.90
2631;DHT22;1325;48.414;9.952;2022-07-10T08:45:05;18.50;99.90
2631;DHT22;1325;48.414;9.952;2022-07-10T08:47:35;18.30;99.90
2631;DHT22;1325;48.414;9.952;2022-07-10T08:50:05;17.80;99.90
2631;DHT22;1325;48.414;9.952;2022-07-10T08:52:43;17.50;99.90
2631;DHT22;1325;48.414;9.952;2022-07-10T08:55:13;17.50;99.90
2631;DHT22;1325;48.414;9.952;2022-07-10T08:57:49;18.10;99.90
2631;DHT22;1325;48.414;9.952;2022-07-10T09:00:17;18.10;99.90
2631;DHT22;1325;48.414;9.952;2022-07-10T09:02:46;18.30;99.90
2631;DHT22;1325;48.414;9.952;2022-07-10T09:05:14;19.70;99.90
2631;DHT22;1325;48.414;9.952;2022-07-10T09:07:41;20.50;99.90
2631;DHT22;1325;48.414;9.952;2022-07-10T09:10:10;21.60;99.90
2631;DHT22;1325;48.414;9.952;2022-07-10T09:12:52;22.10;99.90
2631;DHT22;1325;48.414;9.952;2022-07-10T09:15:22;22.60;99.90
2631;DHT22;1325;48.414;9.952;2022-07-10T09:17:55;23.20;99.90
2631;DHT22;1325;48.414;9.952;2022-07-10T09:20:30;23.60;99.90
2631;DHT22;1325;48.414;9.952;2022-07-10T09:23:08;23.80;99.90
2631;DHT22;1325;48.414;9.952;2022-07-10T09:25:40;22.50;99.90
2631;DHT22;1325;48.414;9.952;2022-07-10T09:28:07;22.70;99.90
2631;DHT22;1325;48.414;9.952;2022-07-10T09:30:35;22.80;99.90
2631;DHT22;1325;48.414;9.952;2022-07-10T09:33:24;24.10;99.90
2631;DHT22;1325;48.414;9.952;2022-07-10T09:35:57;24.20;99.90
2631;DHT22;1325;48.414;9.952;2022-07-10T09:38:48;23.20;99.90
2631;DHT22;1325;48.414;9.952;2022-07-10T09:41:18;22.60;99.90
2631;DHT22;1325;48.414;9.952;2022-07-10T09:43:48;21.40;99.90
2631;DHT22;1325;48.414;9.952;2022-07-10T09:46:18;22.40;99.90
2631;DHT22;1325;48.414;9.952;2022-07-10T09:48:49;23.50;99.90
2631;DHT22;1325;48.414;9.952;2022-07-10T09:51:30;23.50;99.90
2631;DHT22;1325;48.414;9.952;2022-07-10T09:54:01;23.10;99.90
2631;DHT22;1325;48.414;9.952;2022-07-10T09:56:34;22.60;99.90
2631;DHT22;1325;48.414;9.952;2022-07-10T09:59:10;22.90;99.90
2631;DHT22;1325;48.414;9.952;2022-07-10T10:01:42;23.70;99.90
2631;DHT22;1325;48.414;9.952;2022-07-10T10:04:14;23.10;99.90
2631;DHT22;1325;48.414;9.952;2022-07-10T10:06:43;23.00;99.90
2631;DHT22;1325;48.414;9.952;2022-07-10T10:09:20;22.50;99.90
2631;DHT22;1325;48.414;9.952;2022-07-10T10:11:54;23.60;99.90
2631;DHT22;1325;48.414;9.952;2022-07-10T10:14:24;23.70;99.90
2631;DHT22;1325;48.414;9.952;2022-07-10T10:16:55;23.50;99.90
2631;DHT22;1325;48.414;9.952;2022-07-10T10:19:24;23.20;99.90
2631;DHT22;1325;48.414;9.952;2022-07-10T10:22:09;23.20;99.90
2631;DHT22;1325;48.414;9.952;2022-07-10T10:24:39;22.90;99.90
2631;DHT22;1325;48.414;9.952;2022-07-10T10:27:08;22.80;99.90
2631;DHT22;1325;48.414;9.952;2022-07-10T10:29:36;23.00;99.90
2631;DHT22;1325;48.414;9.952;2022-07-10T10:32:05;22.80;99.90
2631;DHT22;1325;48.414;9.952;2022-07-10T10:34:41;22.90;99.90
2631;DHT22;1325;48.414;9.952;2022-07-10T10:37:35;23.50;99.90
2631;DHT22;1325;48.414;9.952;2022-07-10T10:40:04;24.30;99.90
2631;DHT22;1325;48.414;9.952;2022-07-10T10:42:35;23.60;99.90
2631;DHT22;1325;48.414;9.952;2022-07-10T10:45:25;23.10;99.90
2631;DHT22;1325;48.414;9.952;2022-07-10T10:48:00;23.60;99.90
2631;DHT22;1325;48.414;9.952;2022-07-10T10:50:39;24.10;99.90
2631;DHT22;1325;48.414;9.952;2022-07-10T10:53:14;23.60;99.90
2631;DHT22;1325;48.414;9.952;2022-07-10T10:58:48;20.80;99.90
2631;DHT22;1325;48.414;9.952;2022-07-10T11:01:27;20.70;99.90
2631;DHT22;1325;48.414;9.952;2022-07-10T11:04:17;21.30;99.90
2631;DHT22;1325;48.414;9.952;2022-07-10T11:06:48;21.40;99.90
2631;DHT22;1325;48.414;9.952;2022-07-10T11:09:25;20.80;99.90
2631;DHT22;1325;48.414;9.952;2022-07-10T11:12:00;20.80;99.90
2631;DHT22;1325;48.414;9.952;2022-07-10T11:14:31;20.40;99.90
2631;DHT22;1325;48.414;9.952;2022-07-10T11:16:59;20.30;99.90
2631;DHT22;1325;48.414;9.952;2022-07-10T11:19:28;20.70;99.90
2631;DHT22;1325;48.414;9.952;2022-07-10T11:22:25;20.80;99.90
2631;DHT22;1325;48.414;9.952;2022-07-10T11:25:20;21.10;99.90
2631;DHT22;1325;48.414;9.952;2022-07-10T11:28:06;21.40;99.90
2631;DHT22;1325;48.414;9.952;2022-07-10T11:30:45;21.30;99.90
2631;DHT22;1325;48.414;9.952;2022-07-10T11:33:14;21.00;99.90
2631;DHT22;1325;48.414;9.952;2022-07-10T11:35:45;21.20;99.90
2631;DHT22;1325;48.414;9.952;2022-07-10T11:38:19;21.40;99.90
2631;DHT22;1325;48.414;9.952;2022-07-10T11:40:47;21.50;99.90
2631;DHT22;1325;48.414;9.952;2022-07-10T11:43:14;21.20;99.90
2631;DHT22;1325;48.414;9.952;2022-07-10T11:45:43;21.10;99.90
2631;DHT22;1325;48.414;9.952;2022-07-10T11:48:16;20.60;99.90
2631;DHT22;1325;48.414;9.952;2022-07-10T11:50:44;20.90;99.90
2631;DHT22;1325;48.414;9.952;2022-07-10T11:53:12;21.00;99.90
2631;DHT22;1325;48.414;9.952;2022-07-10T11:55:48;20.70;99.90
2631;DHT22;1325;48.414;9.952;2022-07-10T11:58:18;20.80;99.90
2631;DHT22;1325;48.414;9.952;2022-07-10T12:00:57;20.60;99.90
2631;DHT22;1325;48.414;9.952;2022-07-10T12:03:27;20.90;99.90
2631;DHT22;1325;48.414;9.952;2022-07-10T12:05:54;21.20;99.90
2631;DHT22;1325;48.414;9.952;2022-07-10T12:08:23;21.20;99.90
2631;DHT22;1325;48.414;9.952;2022-07-10T12:10:51;20.90;99.90
2631;DHT22;1325;48.414;9.952;2022-07-10T12:13:18;21.20;99.90
2631;DHT22;1325;48.414;9.952;2022-07-10T12:15:46;21.10;99.90
2631;DHT22;1325;48.414;9.952;2022-07-10T12:18:16;20.80;99.90
2631;DHT22;1325;48.414;9.952;2022-07-10T12:20:45;20.80;99.90
2631;DHT22;1325;48.414;9.952;2022-07-10T12:23:13;21.00;99.90
2631;DHT22;1325;48.414;9.952;2022-07-10T12:25:44;20.90;99.90
2631;DHT22;1325;48.414;9.952;2022-07-10T12:28:14;20.40;99.90
2631;DHT22;1325;48.414;9.952;2022-07-10T12:30:42;20.10;99.90
2631;DHT22;1325;48.414;9.952;2022-07-10T12:33:12;20.00;99.90
2631;DHT22;1325;48.414;9.952;2022-07-10T12:35:47;19.90;99.90
2631;DHT22;1325;48.414;9.952;2022-07-10T12:38:17;19.60;99.90
2631;DHT22;1325;48.414;9.952;2022-07-10T12:40:47;19.30;99.90
2631;DHT22;1325;48.414;9.952;2022-07-10T12:43:24;19.50;99.90
2631;DHT22;1325;48.414;9.952;2022-07-10T12:46:10;19.70;99.90
2631;DHT22;1325;48.414;9.952;2022-07-10T12:48:38;19.90;99.90
2631;DHT22;1325;48.414;9.952;2022-07-10T12:51:25;20.40;99.90
2631;DHT22;1325;48.414;9.952;2022-07-10T12:53:54;20.60;99.90
2631;DHT22;1325;48.414;9.952;2022-07-10T12:56:36;20.80;99.90
2631;DHT22;1325;48.414;9.952;2022-07-10T12:59:12;20.80;99.90
2631;DHT22;1325;48.414;9.952;2022-07-10T13:01:41;20.80;99.90
2631;DHT22;1325;48.414;9.952;2022-07-10T13:04:10;20.70;99.90
2631;DHT22;1325;48.414;9.952;2022-07-10T13:06:39;20.70;99.90
2631;DHT22;1325;48.414;9.952;2022-07-10T13:09:21;20.10;99.90
2631;DHT22;1325;48.414;9.952;2022-07-10T13:11:51;19.90;99.90
2631;DHT22;1325;48.414;9.952;2022-07-10T13:14:19;19.80;99.90
2631;DHT22;1325;48.414;9.952;2022-07-10T13:16:47;20.00;99.90
2631;DHT22;1325;48.414;9.952;2022-07-10T13:19:15;20.30;99.90
2631;DHT22;1325;48.414;9.952;2022-07-10T13:21:42;20.50;99.90
2631;DHT22;1325;48.414;9.952;2022-07-10T13:24:10;20.80;99.90
2631;DHT22;1325;48.414;9.952;2022-07-10T13:26:37;20.80;99.90
2631;DHT22;1325;48.414;9.952;2022-07-10T13:29:05;20.60;99.90
2631;DHT22;1325;48.414;9.952;2022-07-10T13:31:33;20.00;99.90
2631;DHT22;1325;48.414;9.952;2022-07-10T13:34:00;20.30;99.90
2631;DHT22;1325;48.414;9.952;2022-07-10T13:36:27;20.60;99.90
2631;DHT22;1325;48.414;9.952;2022-07-10T13:38:54;20.40;99.90
2631;DHT22;1325;48.414;9.952;2022-07-10T13:41:22;20.30;99.90
2631;DHT22;1325;48.414;9.952;2022-07-10T13:43:49;19.90;99.90
2631;DHT22;1325;48.414;9.952;2022-07-10T13:46:17;19.80;99.90
2631;DHT22;1325;48.414;9.952;2022-07-10T13:48:45;19.70;99.90
2631;DHT22;1325;48.414;9.952;2022-07-10T13:51:12;20.10;99.90
2631;DHT22;1325;48.414;9.952;2022-07-10T13:53:39;20.10;99.90
2631;DHT22;1325;48.414;9.952;2022-07-10T13:56:08;20.30;99.90
2631;DHT22;1325;48.414;9.952;2022-07-10T13:58:35;20.10;99.90
2631;DHT22;1325;48.414;9.952;2022-07-10T14:01:03;20.20;99.90
2631;DHT22;1325;48.414;9.952;2022-07-10T14:03:32;20.30;99.90
2631;DHT22;1325;48.414;9.952;2022-07-10T14:05:59;20.30;99.90
2631;DHT22;1325;48.414;9.952;2022-07-10T14:08:27;20.40;99.90
2631;DHT22;1325;48.414;9.952;2022-07-10T14:10:54;20.40;99.90
2631;DHT22;1325;48.414;9.952;2022-07-10T14:13:22;20.20;99.90
2631;DHT22;1325;48.414;9.952;2022-07-10T14:15:49;19.80;99.90
2631;DHT22;1325;48.414;9.952;2022-07-10T14:18:16;20.30;99.90
2631;DHT22;1325;48.414;9.952;2022-07-10T14:21:02;20.60;99.90
2631;DHT22;1325;48.414;9.952;2022-07-10T14:23:30;20.40;99.90
2631;DHT22;1325;48.414;9.952;2022-07-10T14:25:58;20.20;99.90
2631;DHT22;1325;48.414;9.952;2022-07-10T14:28:25;20.50;99.90
2631;DHT22;1325;48.414;9.952;2022-07-10T14:30:52;20.30;99.90
2631;DHT22;1325;48.414;9.952;2022-07-10T14:33:20;20.50;99.90
2631;DHT22;1325;48.414;9.952;2022-07-10T14:35:47;20.30;99.90
2631;DHT22;1325;48.414;9.952;2022-07-10T14:38:16;20.10;99.90
2631;DHT22;1325;48.414;9.952;2022-07-10T14:40:43;20.40;99.90
2631;DHT22;1325;48.414;9.952;2022-07-10T14:43:11;20.60;99.90
2631;DHT22;1325;48.414;9.952;2022-07-10T14:45:38;20.40;99.90
2631;DHT22;1325;48.414;9.952;2022-07-10T14:48:05;20.30;99.90
2631;DHT22;1325;48.414;9.952;2022-07-10T14:50:33;20.00;99.90
2631;DHT22;1325;48.414;9.952;2022-07-10T14:53:00;20.00;99.90
2631;DHT22;1325;48.414;9.952;2022-07-10T14:55:29;20.00;99.90
2631;DHT22;1325;48.414;9.952;2022-07-10T14:57:56;19.90;99.90
2631;DHT22;1325;48.414;9.952;2022-07-10T15:00:23;20.00;99.90
2631;DHT22;1325;48.414;9.952;2022-07-10T15:02:50;19.60;99.90
2631;DHT22;1325;48.414;9.952;2022-07-10T15:05:17;19.60;99.90
2631;DHT22;1325;48.414;9.952;2022-07-10T15:07:44;19.70;99.90
2631;DHT22;1325;48.414;9.952;2022-07-10T15:10:12;19.60;99.90
2631;DHT22;1325;48.414;9.952;2022-07-10T15:12:42;19.60;99.90
2631;DHT22;1325;48.414;9.952;2022-07-10T15:15:10;19.50;99.90
2631;DHT22;1325;48.414;9.952;2022-07-10T15:17:37;19.40;99.90
2631;DHT22;1325;48.414;9.952;2022-07-10T15:20:05;19.60;99.90
2631;DHT22;1325;48.414;9.952;2022-07-10T15:22:33;20.10;99.90
2631;DHT22;1325;48.414;9.952;2022-07-10T15:25:00;20.00;99.90
2631;DHT22;1325;48.414;9.952;2022-07-10T15:27:28;19.90;99.90
2631;DHT22;1325;48.414;9.952;2022-07-10T15:29:57;19.90;99.90
2631;DHT22;1325;48.414;9.952;2022-07-10T15:32:24;19.70;99.90
2631;DHT22;1325;48.414;9.952;2022-07-10T15:34:51;19.90;99.90
2631;DHT22;1325;48.414;9.952;2022-07-10T15:37:18;19.60;99.90
2631;DHT22;1325;48.414;9.952;2022-07-10T15:39:45;19.50;99.90
2631;DHT22;1325;48.414;9.952;2022-07-10T15:42:13;19.60;99.90
2631;DHT22;1325;48.414;9.952;2022-07-10T15:44:40;19.50;99.90
2631;DHT22;1325;48.414;9.952;2022-07-10T15:47:08;19.60;99.90
2631;DHT22;1325;48.414;9.952;2022-07-10T15:49:37;20.00;99.90
2631;DHT22;1325;48.414;9.952;2022-07-10T15:52:04;19.70;99.90
2631;DHT22;1325;48.414;9.952;2022-07-10T15:54:32;19.60;99.90
2631;DHT22;1325;48.414;9.952;2022-07-10T15:57:00;19.60;99.90
2631;DHT22;1325;48.414;9.952;2022-07-10T15:59:28;19.60;99.90
2631;DHT22;1325;48.414;9.952;2022-07-10T16:01:57;19.70;99.90
2631;DHT22;1325;48.414;9.952;2022-07-10T16:04:26;19.60;99.90
2631;DHT22;1325;48.414;9.952;2022-07-10T16:06:54;19.70;99.90
2631;DHT22;1325;48.414;9.952;2022-07-10T16:09:21;19.60;99.90
2631;DHT22;1325;48.414;9.952;2022-07-10T16:11:49;19.40;99.90
2631;DHT22;1325;48.414;9.952;2022-07-10T16:14:16;19.10;99.90
2631;DHT22;1325;48.414;9.952;2022-07-10T16:16:45;19.10;99.90
2631;DHT22;1325;48.414;9.952;2022-07-10T16:19:12;19.50;99.90